Time;durP1;ratioP1;P1;durP2;ratioP2;P2;SDS_P1;SDS_P2;PMS_P1;PMS_P2;Temp;Humidity;BMP_temperature;BMP_pressure;BME280_temperature;BME280_humidity;BME280_pressure;Samples;Min_cycle;Max_cycle;Signal;HPM_P1;HPM_P2
2023/08/20 00:01:23;;;;;;;3.08;0.60;;;;;;;17.79;67.82;100405.31;5040471;28;20041;-59
2023/08/20 00:03:52;;;;;;;1.88;0.60;;;;;;;17.77;67.85;100407.16;5048675;28;20069;-60
2023/08/20 00:06:20;;;;;;;5.65;1.05;;;;;;;17.76;67.83;100413.28;5048579;28;20045;-56
2023/08/20 00:08:47;;;;;;;1.58;0.60;;;;;;;17.71;66.99;100409.03;5045927;28;20048;-60
2023/08/20 00:11:14;;;;;;;3.45;0.68;;;;;;;17.70;66.93;100423.00;5042961;28;20040;-59
2023/08/20 00:13:41;;;;;;;4.85;0.77;;;;;;;17.67;67.05;100423.09;5048102;28;20056;-61
2023/08/20 00:16:08;;;;;;;3.53;1.23;;;;;;;17.64;66.82;100423.19;5046687;28;20044;-60
2023/08/20 00:18:36;;;;;;;5.88;0.88;;;;;;;17.62;67.14;100427.59;5048760;28;20051;-57
2023/08/20 00:21:05;;;;;;;6.25;0.82;;;;;;;17.59;67.65;100422.44;5048109;28;20114;-60
2023/08/20 00:23:32;;;;;;;8.57;0.80;;;;;;;17.55;67.67;100433.88;5042290;28;20485;-60
2023/08/20 00:25:59;;;;;;;8.65;1.25;;;;;;;17.53;67.28;100436.53;5048713;28;20037;-60
2023/08/20 00:28:26;;;;;;;4.07;0.82;;;;;;;17.48;67.14;100430.56;5046906;28;20653;-60
2023/08/20 00:30:53;;;;;;;2.78;1.10;;;;;;;17.45;66.70;100434.13;5048127;28;20049;-61
2023/08/20 00:33:19;;;;;;;4.38;0.90;;;;;;;17.43;66.98;100429.84;5046799;28;20064;-56
2023/08/20 00:35:46;;;;;;;4.85;1.00;;;;;;;17.40;67.10;100436.03;5043419;28;20057;-61
2023/08/20 00:38:13;;;;;;;6.13;0.85;;;;;;;17.36;66.95;100434.34;5047319;28;20053;-59
2023/08/20 00:40:39;;;;;;;5.90;1.92;;;;;;;17.32;67.05;100437.94;5048370;28;20638;-57
2023/08/20 00:43:06;;;;;;;4.90;1.35;;;;;;;17.29;67.53;100435.44;5047421;28;20052;-59
2023/08/20 00:45:34;;;;;;;5.22;0.80;;;;;;;17.26;67.30;100440.72;5048127;28;20259;-54
2023/08/20 00:48:00;;;;;;;4.07;0.50;;;;;;;17.21;67.60;100444.31;5048071;28;20156;-58
2023/08/20 00:50:28;;;;;;;3.58;0.77;;;;;;;17.19;67.21;100440.88;5045221;28;20670;-58
2023/08/20 00:52:55;;;;;;;3.25;1.08;;;;;;;17.17;67.69;100445.28;5048380;28;20098;-57
2023/08/20 00:55:22;;;;;;;8.40;0.85;;;;;;;17.14;67.40;100449.72;5047508;28;20148;-58
2023/08/20 00:57:49;;;;;;;2.28;0.68;;;;;;;17.11;67.71;100442.81;5047876;28;20123;-59
2023/08/20 01:00:17;;;;;;;5.05;1.00;;;;;;;17.09;67.65;100447.22;5043688;28;20088;-61
2023/08/20 01:02:44;;;;;;;5.13;1.13;;;;;;;17.05;67.81;100445.53;5046205;28;20477;-60
2023/08/20 01:05:15;;;;;;;5.18;0.93;;;;;;;17.01;68.27;100447.38;5044664;28;20045;-59
2023/08/20 01:13:02;;;;;;;8.40;2.15;;;;;;;16.91;68.45;100444.09;5044948;27;20405;-58
2023/08/20 01:15:28;;;;;;;9.38;2.28;;;;;;;16.88;67.95;100454.63;5039072;28;20049;-60
2023/08/20 01:17:55;;;;;;;6.07;2.03;;;;;;;16.85;68.19;100459.94;5034601;28;20135;-60
2023/08/20 01:20:26;;;;;;;6.30;2.30;;;;;;;16.83;68.79;100456.50;5038989;28;20076;-59
2023/08/20 01:28:27;;;;;;;5.05;1.00;;;;;;;16.73;68.83;100465.44;5051195;27;20396;-60
2023/08/20 01:30:56;;;;;;;3.47;0.73;;;;;;;16.73;68.00;100465.44;5038768;28;20269;-61
2023/08/20 01:33:24;;;;;;;3.38;0.80;;;;;;;16.69;68.84;100465.50;5039066;28;20139;-62
2023/08/20 01:35:53;;;;;;;7.15;1.65;;;;;;;16.69;68.91;100470.72;5048878;28;20683;-61
2023/08/20 01:38:20;;;;;;;9.50;2.08;;;;;;;16.66;68.79;100469.94;5023774;28;20045;-59
2023/08/20 01:40:47;;;;;;;6.10;1.90;;;;;;;16.66;68.92;100475.19;5027134;28;20052;-57
2023/08/20 01:43:15;;;;;;;7.40;2.10;;;;;;;16.63;68.44;100476.09;5035547;28;20050;-59
2023/08/20 01:45:41;;;;;;;7.35;1.25;;;;;;;16.63;69.30;100470.88;5032241;28;20056;-62
2023/08/20 01:48:08;;;;;;;3.75;1.10;;;;;;;16.63;68.77;100481.34;5025429;28;20049;-59
2023/08/20 01:50:35;;;;;;;7.05;1.38;;;;;;;16.62;68.45;100479.59;5022536;28;20498;-60
2023/08/20 01:53:03;;;;;;;5.35;1.15;;;;;;;16.60;68.56;100476.16;5017951;28;20501;-59
2023/08/20 01:55:30;;;;;;;7.13;1.10;;;;;;;16.59;69.24;100469.22;5027303;28;20053;-57
2023/08/20 01:57:58;;;;;;;7.60;1.27;;;;;;;16.58;69.13;100472.72;5030764;28;20088;-61
2023/08/20 02:00:25;;;;;;;7.60;1.77;;;;;;;16.58;68.79;100477.94;5033889;28;20072;-63
2023/08/20 02:02:52;;;;;;;6.90;2.08;;;;;;;16.56;69.41;100474.50;5018132;28;20037;-63
2023/08/20 02:05:20;;;;;;;5.45;2.05;;;;;;;16.57;69.57;100476.22;5037070;28;20049;-60
2023/08/20 02:07:47;;;;;;;6.40;1.80;;;;;;;16.57;69.35;100471.00;5047367;28;20048;-57
2023/08/20 02:10:14;;;;;;;7.75;1.67;;;;;;;16.56;70.12;100472.75;5061885;28;20048;-61
2023/08/20 02:12:41;;;;;;;8.80;1.95;;;;;;;16.56;69.71;100474.50;5074576;28;20044;-61
2023/08/20 02:15:09;;;;;;;7.07;1.33;;;;;;;16.55;69.52;100472.81;5075809;28;20080;-59
2023/08/20 02:17:35;;;;;;;8.98;1.73;;;;;;;16.52;69.42;100481.53;5067739;28;20045;-58
2023/08/20 02:20:04;;;;;;;7.57;1.67;;;;;;;16.50;69.82;100485.97;5051405;28;20049;-60
2023/08/20 02:22:31;;;;;;;6.60;0.90;;;;;;;16.47;70.07;100480.78;5054727;28;20049;-61
2023/08/20 02:24:58;;;;;;;6.93;1.30;;;;;;;16.44;70.04;100486.94;5042687;28;20052;-61
2023/08/20 02:27:24;;;;;;;6.57;1.30;;;;;;;16.43;69.83;100490.47;5039211;28;20053;-59
2023/08/20 02:29:51;;;;;;;5.75;1.55;;;;;;;16.42;69.80;100488.72;5046175;28;20102;-60
2023/08/20 02:32:18;;;;;;;4.28;0.98;;;;;;;16.40;70.12;100489.63;5049432;28;20060;-59
2023/08/20 02:34:50;;;;;;;6.88;1.20;;;;;;;16.38;70.37;100492.28;5053802;28;20672;-62
2023/08/20 02:37:16;;;;;;;7.55;1.05;;;;;;;16.35;70.20;100497.56;5038792;28;20144;-61
2023/08/20 02:39:43;;;;;;;8.20;1.88;;;;;;;16.31;70.36;100490.69;5025673;28;20060;-63
2023/08/20 02:42:10;;;;;;;6.43;1.25;;;;;;;16.30;70.24;100492.44;5038127;28;20091;-61
2023/08/20 02:44:37;;;;;;;7.80;1.17;;;;;;;16.28;70.57;100496.00;5035131;28;20057;-63
2023/08/20 02:47:03;;;;;;;9.55;1.35;;;;;;;16.27;70.25;100494.25;5036345;28;20075;-62
2023/08/20 02:49:30;;;;;;;7.15;1.40;;;;;;;16.23;69.92;100493.47;5035126;28;20048;-60
2023/08/20 02:51:57;;;;;;;5.95;1.30;;;;;;;16.21;70.22;100497.00;5027828;28;20042;-61
2023/08/20 02:54:25;;;;;;;9.82;1.08;;;;;;;16.18;70.61;100500.53;5030789;28;20103;-63
2023/08/20 02:56:52;;;;;;;7.25;1.50;;;;;;;16.13;70.74;100492.78;5028345;28;20049;-61
2023/08/20 02:59:19;;;;;;;8.25;1.55;;;;;;;16.10;70.72;100492.81;5038111;28;20584;-62
2023/08/20 03:01:46;;;;;;;10.18;1.55;;;;;;;16.09;70.39;100503.28;5030007;28;20045;-61
2023/08/20 03:04:13;;;;;;;8.75;1.52;;;;;;;16.06;71.35;100509.44;5039449;28;20648;-63
2023/08/20 03:06:39;;;;;;;9.32;1.40;;;;;;;16.03;70.72;100502.53;5038925;28;20509;-60
2023/08/20 03:09:06;;;;;;;10.07;1.75;;;;;;;16.01;70.90;100503.44;5034250;28;20056;-64
2023/08/20 03:11:32;;;;;;;9.73;1.60;;;;;;;15.97;70.92;100501.78;5030902;28;20072;-56
2023/08/20 03:13:59;;;;;;;4.68;1.83;;;;;;;15.93;71.18;100503.53;5034228;28;20050;-56
2023/08/20 03:16:26;;;;;;;10.38;2.40;;;;;;;15.89;71.47;100505.38;5028733;28;20069;-60
2023/08/20 03:18:52;;;;;;;9.07;2.25;;;;;;;15.88;71.57;100506.22;5037146;28;20065;-62
2023/08/20 03:21:19;;;;;;;12.55;2.53;;;;;;;15.89;71.55;100507.09;5033121;28;20045;-62
2023/08/20 03:23:46;;;;;;;9.20;2.70;;;;;;;15.88;71.77;100503.63;5037134;28;20849;-56
2023/08/20 03:26:13;;;;;;;10.68;2.55;;;;;;;15.89;71.77;100513.19;5036480;28;20056;-62
2023/08/20 03:28:39;;;;;;;13.75;2.97;;;;;;;15.91;71.48;100514.00;5030276;28;20053;-58
2023/08/20 03:31:06;;;;;;;11.38;3.03;;;;;;;15.93;72.04;100520.09;5031406;28;20132;-61
2023/08/20 03:33:33;;;;;;;8.90;2.85;;;;;;;15.95;72.12;100520.09;5038694;28;20454;-60
2023/08/20 03:35:59;;;;;;;10.57;2.72;;;;;;;15.98;72.17;100524.41;5027146;28;20041;-61
2023/08/20 03:38:26;;;;;;;7.65;2.38;;;;;;;16.00;72.06;100518.25;5030342;28;20076;-60
2023/08/20 03:40:55;;;;;;;11.05;2.75;;;;;;;16.04;72.33;100529.50;5031568;28;20049;-62
2023/08/20 03:43:22;;;;;;;9.77;3.53;;;;;;;16.05;72.38;100526.03;5041032;28;20075;-59
2023/08/20 03:45:51;;;;;;;14.75;2.83;;;;;;;16.09;72.87;100532.91;5031107;28;20080;-59
2023/08/20 03:48:18;;;;;;;9.70;2.60;;;;;;;16.10;73.52;100533.75;5035075;28;20057;-63
2023/08/20 03:50:45;;;;;;;8.25;2.95;;;;;;;16.13;73.07;100528.47;5031068;28;20295;-59
2023/08/20 03:53:11;;;;;;;9.90;2.90;;;;;;;16.14;73.22;100525.84;5033290;28;20106;-62
2023/08/20 03:55:38;;;;;;;13.65;4.40;;;;;;;16.15;73.38;100527.56;5029125;28;20053;-59
2023/08/20 03:58:05;;;;;;;17.63;3.88;;;;;;;16.19;72.65;100523.16;5030111;28;20119;-62
2023/08/20 04:00:31;;;;;;;11.43;3.85;;;;;;;16.22;72.96;100527.44;5030369;28;20395;-60
2023/08/20 04:02:58;;;;;;;18.35;3.70;;;;;;;16.22;73.15;100527.44;5039113;28;20045;-62
2023/08/20 04:05:25;;;;;;;17.77;3.10;;;;;;;16.19;73.46;100529.22;5033007;28;20044;-62
2023/08/20 04:07:51;;;;;;;13.20;3.42;;;;;;;16.22;73.04;100532.69;5037343;28;20124;-59
2023/08/20 04:10:18;;;;;;;16.10;3.65;;;;;;;16.25;73.07;100535.25;5035605;28;20252;-60
2023/08/20 04:12:44;;;;;;;14.40;3.03;;;;;;;16.28;73.25;100537.81;5026377;28;20071;-62
2023/08/20 04:15:11;;;;;;;11.95;2.00;;;;;;;16.28;73.23;100536.03;5030661;28;20457;-62
2023/08/20 04:17:38;;;;;;;7.15;2.17;;;;;;;16.27;73.42;100547.38;5024320;28;20049;-62
2023/08/20 04:20:08;;;;;;;9.95;2.85;;;;;;;16.24;73.06;100541.38;5036567;28;20057;-62
2023/08/20 04:22:34;;;;;;;;;;;;;;;16.03;73.64;100538.22;5034158;28;20041;-62
2023/08/20 04:25:01;;;;;;;15.23;3.33;;;;;;;16.12;72.60;100540.69;5035226;28;19947;-58
2023/08/20 04:27:32;;;;;;;12.60;3.22;;;;;;;16.10;72.88;100542.47;5033419;28;20048;-60
2023/08/20 04:29:59;;;;;;;8.07;2.45;;;;;;;16.08;72.85;100546.00;5030104;28;20053;-56
2023/08/20 04:32:26;;;;;;;8.10;2.42;;;;;;;16.06;73.30;100548.63;5031888;28;20049;-61
2023/08/20 04:34:54;;;;;;;11.57;3.50;;;;;;;16.04;73.04;100555.63;5030686;28;20095;-62
2023/08/20 04:37:20;;;;;;;11.88;3.25;;;;;;;16.03;73.24;100561.75;5023544;28;20490;-62
2023/08/20 04:39:47;;;;;;;8.60;2.53;;;;;;;16.01;73.07;100568.75;5031778;28;21236;-59
2023/08/20 04:42:14;;;;;;;13.85;2.30;;;;;;;16.00;73.08;100567.91;5032656;28;20088;-59
2023/08/20 04:44:40;;;;;;;12.13;2.58;;;;;;;16.00;73.64;100569.63;5032679;28;20056;-61
2023/08/20 04:47:12;;;;;;;9.77;2.65;;;;;;;15.99;72.44;100570.53;5034661;28;20080;-57
2023/08/20 04:49:39;;;;;;;7.85;2.30;;;;;;;15.99;72.72;100574.00;5028200;28;20061;-62
2023/08/20 04:52:06;;;;;;;8.07;2.20;;;;;;;16.00;73.06;100580.09;5044953;28;20118;-59
2023/08/20 04:54:33;;;;;;;7.03;2.78;;;;;;;16.01;72.84;100576.59;5053279;28;20068;-60
2023/08/20 04:56:59;;;;;;;9.02;2.40;;;;;;;16.00;72.21;100580.97;5048651;28;20050;-62
2023/08/20 04:59:26;;;;;;;11.57;2.95;;;;;;;16.02;73.29;100578.31;5052646;28;20048;-61
2023/08/20 05:01:52;;;;;;;14.55;2.88;;;;;;;16.04;73.18;100584.38;5047320;28;20048;-61
2023/08/20 05:04:19;;;;;;;9.32;2.50;;;;;;;16.06;72.84;100590.44;5050943;28;20127;-60
2023/08/20 05:06:46;;;;;;;7.88;2.38;;;;;;;16.08;72.50;100593.03;5051467;28;20052;-61
2023/08/20 05:09:12;;;;;;;12.18;3.05;;;;;;;16.11;72.89;100593.81;5038658;28;20049;-63
2023/08/20 05:11:39;;;;;;;11.82;2.20;;;;;;;16.11;73.19;100591.22;5031087;28;20612;-60
2023/08/20 05:14:06;;;;;;;7.93;2.17;;;;;;;16.13;73.33;100599.91;5056423;28;20052;-62
2023/08/20 05:16:32;;;;;;;8.50;1.70;;;;;;;16.14;73.22;100604.22;5036014;28;20053;-59
2023/08/20 05:18:59;;;;;;;12.38;2.03;;;;;;;16.16;72.87;100597.25;5036649;28;20040;-60
2023/08/20 05:21:26;;;;;;;10.18;1.98;;;;;;;16.18;73.33;100600.69;5029067;28;20064;-60
2023/08/20 05:23:52;;;;;;;8.55;1.83;;;;;;;16.21;73.36;100604.13;5028289;28;20410;-61
2023/08/20 05:26:19;;;;;;;10.65;2.50;;;;;;;16.23;73.11;100603.22;5026138;28;20049;-60
2023/08/20 05:28:45;;;;;;;9.13;2.80;;;;;;;16.26;73.25;100607.53;5025675;28;20261;-61
2023/08/20 05:31:12;;;;;;;11.88;2.17;;;;;;;16.29;73.37;100607.47;5019558;28;20050;-61
2023/08/20 05:33:39;;;;;;;6.97;1.75;;;;;;;16.32;73.33;100610.03;5025523;28;20060;-62
2023/08/20 05:36:06;;;;;;;9.23;3.25;;;;;;;16.37;73.83;100604.72;5026909;28;20049;-61
2023/08/20 05:38:32;;;;;;;13.52;4.15;;;;;;;16.40;73.19;100605.53;5029022;28;20041;-62
2023/08/20 05:40:59;;;;;;;12.98;2.45;;;;;;;16.43;73.33;100610.72;5031914;28;20056;-60
2023/08/20 05:43:26;;;;;;;8.30;2.42;;;;;;;16.47;73.81;100605.41;5032638;28;20048;-62
2023/08/20 05:45:52;;;;;;;9.70;2.53;;;;;;;16.51;73.69;100612.34;5031593;28;20048;-62
2023/08/20 05:48:19;;;;;;;13.20;2.25;;;;;;;16.54;72.92;100613.13;5030792;28;20045;-62
2023/08/20 05:50:46;;;;;;;14.60;1.98;;;;;;;16.59;73.70;100626.13;5025971;28;20493;-61
2023/08/20 05:53:12;;;;;;;6.82;2.10;;;;;;;16.65;73.41;100625.16;5027612;28;20057;-62
2023/08/20 05:55:40;;;;;;;11.10;2.70;;;;;;;16.66;73.37;100625.13;5030142;28;20505;-62
2023/08/20 05:58:06;;;;;;;7.88;2.60;;;;;;;16.72;73.80;100610.19;5052335;28;20037;-62
2023/08/20 06:00:33;;;;;;;9.25;2.47;;;;;;;16.77;72.98;100616.19;5041071;28;20042;-61
2023/08/20 06:03:00;;;;;;;13.63;2.65;;;;;;;16.82;73.37;100624.81;5025727;28;20106;-60
2023/08/20 06:05:26;;;;;;;10.35;2.95;;;;;;;16.85;73.59;100632.59;5026431;28;20041;-63
2023/08/20 06:07:53;;;;;;;11.77;3.53;;;;;;;16.91;73.65;100632.47;5027046;28;20392;-61
2023/08/20 06:10:20;;;;;;;5.57;2.45;;;;;;;16.95;73.20;100633.25;5026776;28;20045;-61
2023/08/20 06:12:46;;;;;;;11.60;2.55;;;;;;;16.98;73.76;100632.38;5030534;28;20056;-61
2023/08/20 06:15:14;;;;;;;8.77;2.33;;;;;;;17.03;72.96;100634.00;5041362;28;20057;-62
2023/08/20 06:17:41;;;;;;;4.80;2.05;;;;;;;17.08;73.23;100629.56;5043020;28;20052;-62
2023/08/20 06:20:08;;;;;;;9.63;3.03;;;;;;;17.13;73.37;100642.56;5030895;28;20713;-61
2023/08/20 06:22:35;;;;;;;5.35;1.98;;;;;;;17.18;73.16;100643.31;5029980;28;20044;-60
2023/08/20 06:25:03;;;;;;;11.60;3.30;;;;;;;17.26;72.70;100644.91;5028597;28;20038;-61
2023/08/20 06:27:30;;;;;;;8.20;2.00;;;;;;;17.32;73.24;100647.38;5032392;28;20049;-60
2023/08/20 06:29:56;;;;;;;6.63;1.55;;;;;;;17.41;72.84;100657.66;5028372;28;20049;-62
2023/08/20 06:32:24;;;;;;;6.82;2.08;;;;;;;17.48;72.52;100650.53;5035149;28;20111;-62
2023/08/20 06:34:50;;;;;;;9.35;2.40;;;;;;;17.55;72.12;100653.88;5029746;28;20132;-61
2023/08/20 06:37:17;;;;;;;6.88;2.42;;;;;;;17.63;72.16;100651.09;5029519;28;20049;-61
2023/08/20 06:39:44;;;;;;;8.15;1.90;;;;;;;17.67;72.28;100650.97;5034596;28;20049;-60
2023/08/20 06:42:10;;;;;;;5.82;2.20;;;;;;;17.72;72.48;100646.50;5029443;28;20623;-61
2023/08/20 06:44:37;;;;;;;6.18;1.25;;;;;;;17.82;72.07;100654.16;5033617;28;20057;-63
2023/08/20 06:47:04;;;;;;;12.80;2.17;;;;;;;18.21;72.39;100654.09;5029405;28;20482;-62
2023/08/20 06:49:30;;;;;;;4.10;1.58;;;;;;;18.72;72.15;100665.06;5025004;28;20050;-62
2023/08/20 06:51:57;;;;;;;8.05;2.17;;;;;;;19.24;71.77;100672.41;5032046;28;20041;-60
2023/08/20 06:54:24;;;;;;;6.15;1.83;;;;;;;19.72;70.73;100679.78;5029178;28;20045;-60
2023/08/20 06:56:50;;;;;;;6.28;2.45;;;;;;;19.76;69.76;100684.88;5039283;28;20790;-61
2023/08/20 06:59:17;;;;;;;5.25;1.27;;;;;;;19.70;69.52;100681.56;5030552;28;20453;-60
2023/08/20 07:01:44;;;;;;;9.02;1.45;;;;;;;19.58;69.25;100688.94;5032478;28;20050;-62
2023/08/20 07:04:12;;;;;;;7.32;1.75;;;;;;;19.48;68.80;100680.47;5025303;28;20583;-62
2023/08/20 07:06:39;;;;;;;8.82;2.08;;;;;;;19.45;69.08;100691.06;5034851;28;20053;-62
2023/08/20 07:09:06;;;;;;;4.90;1.55;;;;;;;19.55;68.74;100680.28;5038193;28;20049;-62
2023/08/20 07:11:32;;;;;;;5.43;1.95;;;;;;;19.73;68.93;100669.19;5034381;28;20469;-61
2023/08/20 07:13:59;;;;;;;7.95;2.47;;;;;;;20.10;69.04;100682.13;5039370;28;20063;-61
2023/08/20 07:16:26;;;;;;;9.20;1.77;;;;;;;20.53;68.32;100677.16;5037074;28;20650;-62
2023/08/20 07:18:53;;;;;;;7.75;2.20;;;;;;;20.91;67.70;100674.16;5028651;28;20100;-62
2023/08/20 07:21:19;;;;;;;5.55;1.88;;;;;;;21.19;66.97;100678.41;5031205;28;20733;-62
2023/08/20 07:23:46;;;;;;;5.95;1.60;;;;;;;21.48;66.62;100676.41;5030310;28;20107;-62
2023/08/20 07:26:12;;;;;;;5.72;1.63;;;;;;;21.92;65.67;100682.69;5029386;28;20140;-62
2023/08/20 07:28:56;;;;;;;4.97;1.65;;;;;;;22.02;64.25;100686.66;5035589;28;20132;-61
2023/08/20 07:31:24;;;;;;;6.82;1.42;;;;;;;22.03;63.79;100691.03;5023903;28;20125;-61
2023/08/20 07:33:52;;;;;;;5.28;1.45;;;;;;;22.09;64.19;100682.84;5031649;28;20037;-61
2023/08/20 07:36:21;;;;;;;5.25;1.42;;;;;;;22.21;63.28;100677.97;5028931;28;20049;-62
2023/08/20 07:38:49;;;;;;;5.65;1.05;;;;;;;22.54;63.22;100680.13;5028564;28;20488;-62
2023/08/20 07:41:16;;;;;;;8.27;1.77;;;;;;;22.79;62.47;100696.69;5033716;28;20479;-60
2023/08/20 07:43:43;;;;;;;3.33;1.15;;;;;;;22.78;61.20;100692.34;5028448;28;20123;-61
2023/08/20 07:46:10;;;;;;;6.75;1.10;;;;;;;22.85;61.22;100694.66;5026670;28;20521;-61
2023/08/20 07:48:37;;;;;;;8.27;1.27;;;;;;;23.14;61.43;100691.63;5033054;28;20055;-61
2023/08/20 07:51:04;;;;;;;4.50;1.10;;;;;;;23.49;60.37;100693.59;5032186;28;20057;-61
2023/08/20 07:53:31;;;;;;;5.82;1.38;;;;;;;23.76;59.65;100695.88;5039195;28;20045;-62
2023/08/20 07:55:59;;;;;;;4.13;1.27;;;;;;;24.17;59.54;100693.94;5032188;28;20372;-61
2023/08/20 07:58:25;;;;;;;6.65;0.85;;;;;;;24.38;59.22;100699.94;5028433;28;20057;-61
2023/08/20 08:00:56;;;;;;;3.47;1.55;;;;;;;24.71;58.18;100703.56;5033257;28;20078;-62
2023/08/20 08:03:25;;;;;;;7.30;1.00;;;;;;;24.60;57.52;100707.66;5030036;28;20061;-62
2023/08/20 08:05:53;;;;;;;5.28;1.00;;;;;;;24.36;57.50;100710.63;5033137;28;20045;-61
2023/08/20 08:08:21;;;;;;;5.97;0.80;;;;;;;24.34;58.21;100711.59;5026329;28;20048;-62
2023/08/20 08:10:48;;;;;;;7.28;1.25;;;;;;;24.35;57.34;100708.88;5020190;28;20049;-62
2023/08/20 08:13:22;;;;;;;6.57;1.38;;;;;;;24.15;57.15;100709.91;5030279;28;20060;-61
2023/08/20 08:15:50;;;;;;;5.63;1.85;;;;;;;24.05;56.98;100712.13;5029290;28;20049;-62
2023/08/20 08:18:16;;;;;;;6.55;1.92;;;;;;;24.02;57.18;100712.25;5028834;28;20053;-62
2023/08/20 08:20:43;;;;;;;3.80;0.80;;;;;;;23.88;56.48;100711.13;5031576;28;20049;-61
2023/08/20 08:23:10;;;;;;;5.15;0.90;;;;;;;23.84;57.61;100712.22;5035037;28;20045;-62
2023/08/20 08:25:37;;;;;;;7.70;1.17;;;;;;;24.19;58.12;100718.53;5030173;28;20052;-62
2023/08/20 08:28:05;;;;;;;2.33;0.77;;;;;;;24.66;57.20;100717.06;5027151;28;20044;-62
2023/08/20 08:30:32;;;;;;;6.03;1.58;;;;;;;24.89;56.48;100720.34;5046605;28;20102;-63
2023/08/20 08:32:59;;;;;;;5.22;1.00;;;;;;;24.99;56.04;100723.38;5052225;28;20044;-62
2023/08/20 08:35:25;;;;;;;4.10;0.75;;;;;;;24.95;55.33;100721.81;5044201;28;20072;-62
2023/08/20 08:37:52;;;;;;;4.05;1.02;;;;;;;24.86;55.37;100718.69;5052838;28;20504;-62
2023/08/20 08:40:19;;;;;;;2.72;0.82;;;;;;;24.78;54.50;100715.56;5031555;28;20519;-62
2023/08/20 08:42:49;;;;;;;4.32;1.30;;;;;;;24.64;55.14;100711.84;5046392;28;20052;-62
2023/08/20 08:45:19;;;;;;;5.95;1.48;;;;;;;24.60;55.10;100712.94;5037734;28;20373;-63
2023/08/20 08:47:46;;;;;;;3.30;1.30;;;;;;;24.43;54.93;100720.88;5021057;28;20410;-62
2023/08/20 08:50:13;;;;;;;3.38;1.33;;;;;;;24.64;55.60;100725.09;5030425;28;20061;-62
2023/08/20 08:52:41;;;;;;;4.20;0.75;;;;;;;25.29;54.83;100726.16;5034719;28;20045;-62
2023/08/20 08:55:08;;;;;;;4.75;1.10;;;;;;;25.95;54.67;100727.06;5028966;28;20057;-62
2023/08/20 08:57:37;;;;;;;3.10;0.50;;;;;;;26.44;53.65;100724.22;5038677;28;20060;-62
2023/08/20 09:00:05;;;;;;;2.75;0.98;;;;;;;26.86;52.33;100718.25;5034388;28;20045;-62
2023/08/20 09:02:32;;;;;;;3.17;1.27;;;;;;;27.18;52.13;100720.72;5028073;28;20061;-62
2023/08/20 09:04:59;;;;;;;4.68;1.10;;;;;;;27.61;50.75;100718.09;5030631;28;20049;-62
2023/08/20 09:07:26;;;;;;;4.20;0.68;;;;;;;27.88;50.62;100723.47;5029154;28;20045;-61
2023/08/20 09:09:58;;;;;;;2.17;1.38;;;;;;;28.09;50.05;100723.88;5029573;28;20060;-59
2023/08/20 09:12:25;;;;;;;2.45;0.90;;;;;;;28.35;49.44;100723.97;5028771;28;20067;-58
2023/08/20 09:14:52;;;;;;;3.70;0.85;;;;;;;28.70;49.22;100726.97;5033437;28;20049;-60
2023/08/20 09:17:19;;;;;;;3.92;0.85;;;;;;;29.00;48.96;100728.50;5023997;28;20052;-60
2023/08/20 09:19:46;;;;;;;3.72;1.02;;;;;;;29.30;47.49;100732.63;5028076;28;20048;-60
2023/08/20 09:22:14;;;;;;;4.15;0.82;;;;;;;29.44;47.04;100728.94;5032263;28;20045;-60
2023/08/20 09:24:45;;;;;;;3.45;1.05;;;;;;;29.39;46.72;100733.78;5028964;28;20041;-60
2023/08/20 09:27:13;;;;;;;2.55;0.70;;;;;;;29.27;46.96;100730.16;5026943;28;20045;-61
2023/08/20 09:29:58;;;;;;;2.88;1.00;;;;;;;28.97;47.09;100729.56;5028082;28;20073;-61
2023/08/20 09:32:27;;;;;;;3.13;1.83;;;;;;;28.68;46.22;100737.75;5032759;28;20037;-60
2023/08/20 09:34:55;;;;;;;4.82;0.93;;;;;;;28.51;46.91;100732.72;5038563;28;20053;-61
2023/08/20 09:37:23;;;;;;;2.58;0.60;;;;;;;28.41;47.36;100733.34;5027273;28;20787;-61
2023/08/20 09:39:50;;;;;;;2.38;0.95;;;;;;;28.48;47.34;100729.28;5038123;28;20051;-61
2023/08/20 09:42:17;;;;;;;6.35;0.85;;;;;;;28.56;46.58;100726.13;5025587;28;20053;-60
2023/08/20 09:44:46;;;;;;;2.47;1.05;;;;;;;28.50;46.85;100725.69;5028670;28;20053;-62
2023/08/20 09:47:19;;;;;;;5.68;1.27;;;;;;;28.50;46.92;100720.34;5020286;28;20132;-62
2023/08/20 09:49:48;;;;;;;1.70;1.02;;;;;;;28.65;47.29;100713.97;5034070;28;20045;-60
2023/08/20 09:52:28;;;;;;;4.32;1.02;;;;;;;28.95;46.91;100717.31;5031334;28;20072;-61
2023/08/20 09:57:35;;;;;;;4.15;2.33;;;;;;;29.18;46.59;100714.81;5047401;27;20394;-62
2023/08/20 10:00:09;;;;;;;3.42;1.77;;;;;;;29.33;45.64;100715.53;5017227;28;20041;-62
2023/08/20 10:02:36;;;;;;;5.10;2.30;;;;;;;29.43;45.13;100708.56;5023492;28;20686;-63
2023/08/20 10:05:08;;;;;;;3.97;2.33;;;;;;;29.55;46.01;100712.19;5027728;28;20095;-63
2023/08/20 10:07:36;;;;;;;3.10;2.38;;;;;;;29.65;44.72;100704.34;5030559;28;20399;-62
2023/08/20 10:10:07;;;;;;;4.72;2.47;;;;;;;29.74;45.09;100711.69;5028736;28;20045;-62
2023/08/20 10:12:36;;;;;;;4.55;2.50;;;;;;;29.92;44.39;100708.63;5028746;28;20077;-62
2023/08/20 10:15:03;;;;;;;4.18;2.22;;;;;;;30.05;44.22;100710.38;5025815;28;20048;-63
2023/08/20 10:17:32;;;;;;;4.63;1.95;;;;;;;30.10;44.05;100716.22;5028189;28;20041;-62
2023/08/20 10:20:03;;;;;;;4.72;1.23;;;;;;;30.13;44.07;100724.00;5032194;28;20652;-62
2023/08/20 10:25:11;;;;;;;2.85;0.73;;;;;;;30.16;43.28;100714.94;5083991;27;20388;-63
2023/08/20 10:27:42;;;;;;;4.03;0.75;;;;;;;30.07;43.79;100716.44;5072308;28;20382;-63
2023/08/20 10:30:15;;;;;;;4.18;1.20;;;;;;;30.06;43.47;100712.94;5075107;28;20067;-63
2023/08/20 10:32:46;;;;;;;3.22;0.73;;;;;;;30.18;43.92;100719.19;5066881;28;20059;-63
2023/08/20 10:35:16;;;;;;;3.13;1.35;;;;;;;30.27;43.16;100718.50;5086298;28;20048;-62
2023/08/20 10:38:05;;;;;;;2.30;0.60;;;;;;;30.14;42.80;100712.38;5079997;28;20051;-62
2023/08/20 10:46:08;;;;;;;1.63;0.88;;;;;;;29.92;41.44;100702.44;5033616;28;20403;-62
2023/08/20 10:48:39;;;;;;;2.78;0.70;;;;;;;29.83;41.49;100701.31;5024798;28;20048;-61
2023/08/20 10:51:07;;;;;;;3.03;0.80;;;;;;;29.85;42.27;100691.38;5028962;28;20136;-62
2023/08/20 10:53:34;;;;;;;4.95;1.13;;;;;;;29.99;42.61;100704.53;5025314;28;20072;-62
2023/08/20 10:56:08;;;;;;;2.90;0.90;;;;;;;30.18;42.08;100697.81;5026137;28;20045;-61
2023/08/20 10:58:35;;;;;;;6.50;1.45;;;;;;;30.33;41.66;100710.97;5016560;28;20312;-62
2023/08/20 11:01:20;;;;;;;2.25;0.93;;;;;;;30.42;42.38;100702.25;5026047;28;20053;-61
2023/08/20 11:03:49;;;;;;;2.95;0.80;;;;;;;30.69;41.35;100713.63;5022544;28;20068;-62
2023/08/20 11:06:17;;;;;;;2.58;0.65;;;;;;;30.73;41.13;100707.88;5024392;28;20175;-62
2023/08/20 11:08:44;;;;;;;1.52;0.95;;;;;;;30.87;41.71;100697.97;5024454;28;20050;-62
2023/08/20 11:11:11;;;;;;;2.40;1.05;;;;;;;30.93;41.26;100697.47;5023419;28;20060;-62
2023/08/20 11:13:38;;;;;;;2.70;1.02;;;;;;;31.00;40.94;100698.69;5024033;28;20612;-62
2023/08/20 11:16:06;;;;;;;2.70;0.70;;;;;;;31.07;40.66;100698.22;5025233;28;20098;-62
2023/08/20 11:18:33;;;;;;;3.35;0.85;;;;;;;31.11;40.33;100695.19;5024815;28;20052;-61
2023/08/20 11:21:01;;;;;;;3.20;0.90;;;;;;;31.29;40.65;100700.88;5024739;28;20731;-61
2023/08/20 11:23:28;;;;;;;6.47;0.52;;;;;;;31.36;40.10;100713.75;5024297;28;20052;-62
2023/08/20 11:25:55;;;;;;;2.92;0.93;;;;;;;31.26;39.71;100709.13;5023857;28;20049;-62
2023/08/20 11:28:22;;;;;;;1.73;0.85;;;;;;;31.24;39.15;100705.72;5023601;28;20037;-61
2023/08/20 11:30:49;;;;;;;4.28;0.75;;;;;;;31.26;39.36;100692.22;5016568;28;20407;-62
2023/08/20 11:33:17;;;;;;;2.42;1.25;;;;;;;31.15;40.22;100693.97;5020441;28;20046;-59
2023/08/20 11:35:44;;;;;;;2.15;0.45;;;;;;;31.22;39.51;100699.66;5019586;28;20402;-61
2023/08/20 11:38:11;;;;;;;2.47;0.73;;;;;;;31.15;39.70;100693.97;5024898;28;20659;-62
2023/08/20 11:40:39;;;;;;;2.85;0.82;;;;;;;31.09;39.88;100701.59;5023296;28;20100;-60
2023/08/20 11:43:06;;;;;;;3.28;1.42;;;;;;;30.99;40.04;100691.66;5023587;28;20511;-61
2023/08/20 11:45:43;;;;;;;2.13;1.08;;;;;;;31.03;40.54;100690.44;5030027;28;20041;-62
2023/08/20 11:48:10;;;;;;;5.05;1.05;;;;;;;31.26;41.05;100686.88;5022032;28;20045;-61